Time;durP1;ratioP1;P1;durP2;ratioP2;P2;SDS_P1;SDS_P2;PMS_P1;PMS_P2;Temp;Humidity;BMP_temperature;BMP_pressure;BME280_temperature;BME280_humidity;BME280_pressure;Samples;Min_cycle;Max_cycle;Signal;HPM_P1;HPM_P2
2022/07/18 00:00:08;;;;;;;2.33;1.30;;;;;;;;;;526728;28;1259;-87
2022/07/18 00:00:23;;;;;;;2.05;1.20;;;;;;;;;;525667;28;1729;-87
2022/07/18 00:00:39;;;;;;;3.10;1.20;;;;;;;;;;524127;28;1318;-87
2022/07/18 00:00:54;;;;;;;3.17;1.10;;;;;;;;;;526207;28;1344;-87
2022/07/18 00:01:09;;;;;;;2.42;1.00;;;;;;;;;;526020;28;876;-87
2022/07/18 00:01:25;;;;;;;3.33;1.13;;;;;;;;;;523747;28;1309;-87
2022/07/18 00:01:40;;;;;;;4.17;1.20;;;;;;;;;;523730;28;1276;-86
2022/07/18 00:01:58;;;;;;;3.90;1.10;;;;;;;;;;523734;28;1191;-86
2022/07/18 00:02:14;;;;;;;2.80;1.30;;;;;;;;;;521596;28;1392;-86
2022/07/18 00:02:29;;;;;;;2.63;1.20;;;;;;;;;;523743;28;1405;-87
2022/07/18 00:02:44;;;;;;;3.60;1.10;;;;;;;;;;521602;28;1253;-87
2022/07/18 00:03:00;;;;;;;4.25;1.23;;;;;;;;;;521813;28;1172;-86
2022/07/18 00:03:15;;;;;;;3.45;1.30;;;;;;;;;;521769;28;808;-87
2022/07/18 00:03:31;;;;;;;2.53;1.30;;;;;;;;;;523889;28;1342;-86
2022/07/18 00:03:46;;;;;;;2.70;1.20;;;;;;;;;;521847;28;1394;-87
2022/07/18 00:04:02;;;;;;;3.88;1.20;;;;;;;;;;523999;28;1255;-87
2022/07/18 00:04:17;;;;;;;3.77;1.20;;;;;;;;;;523983;28;793;-87
2022/07/18 00:04:33;;;;;;;3.83;1.20;;;;;;;;;;524140;28;1214;-87
2022/07/18 00:04:48;;;;;;;3.40;1.20;;;;;;;;;;527025;28;895;-87
2022/07/18 00:05:04;;;;;;;2.17;1.02;;;;;;;;;;526397;28;1154;-87
2022/07/18 00:05:22;;;;;;;2.33;1.10;;;;;;;;;;525822;28;1183;-87
2022/07/18 00:05:37;;;;;;;3.58;1.10;;;;;;;;;;526852;28;1185;-87
2022/07/18 00:05:52;;;;;;;3.80;1.10;;;;;;;;;;528254;28;768;-87
2022/07/18 00:06:08;;;;;;;2.55;1.10;;;;;;;;;;526788;28;1256;-87
2022/07/18 00:06:23;;;;;;;3.33;1.27;;;;;;;;;;526073;28;1210;-87
2022/07/18 00:06:38;;;;;;;3.20;1.23;;;;;;;;;;525924;28;1310;-87
2022/07/18 00:06:54;;;;;;;3.00;1.08;;;;;;;;;;528322;28;1301;-87
2022/07/18 00:07:12;;;;;;;3.53;1.10;;;;;;;;;;526173;28;1431;-87
2022/07/18 00:07:28;;;;;;;3.95;1.13;;;;;;;;;;524289;28;1338;-87
2022/07/18 00:07:43;;;;;;;3.17;1.20;;;;;;;;;;522900;28;1288;-87
2022/07/18 00:07:59;;;;;;;2.90;1.10;;;;;;;;;;524430;28;888;-87
2022/07/18 00:08:14;;;;;;;2.67;1.10;;;;;;;;;;524328;28;891;-87
2022/07/18 00:08:29;;;;;;;2.60;1.20;;;;;;;;;;523957;28;1370;-87
2022/07/18 00:08:45;;;;;;;3.50;1.10;;;;;;;;;;525020;28;1010;-87
2022/07/18 00:09:01;;;;;;;3.67;1.10;;;;;;;;;;527096;28;863;-87
2022/07/18 00:09:17;;;;;;;2.30;1.08;;;;;;;;;;526214;28;1260;-88
2022/07/18 00:09:33;;;;;;;2.75;1.00;;;;;;;;;;524799;28;868;-87
2022/07/18 00:09:48;;;;;;;3.13;1.20;;;;;;;;;;523972;28;1251;-87
2022/07/18 00:10:05;;;;;;;3.67;1.27;;;;;;;;;;524215;28;820;-87
2022/07/18 00:10:20;;;;;;;4.05;1.23;;;;;;;;;;524789;28;1122;-86
2022/07/18 00:10:36;;;;;;;2.80;1.20;;;;;;;;;;526341;28;1343;-87
2022/07/18 00:10:51;;;;;;;2.80;1.10;;;;;;;;;;524213;28;1176;-87
2022/07/18 00:11:06;;;;;;;2.80;1.30;;;;;;;;;;524886;28;1004;-87
2022/07/18 00:11:22;;;;;;;3.85;1.30;;;;;;;;;;524066;28;1301;-87
2022/07/18 00:11:38;;;;;;;4.40;1.30;;;;;;;;;;524115;28;1284;-87
2022/07/18 00:11:53;;;;;;;3.10;1.30;;;;;;;;;;523518;28;1206;-87
2022/07/18 00:12:10;;;;;;;2.88;1.10;;;;;;;;;;524316;28;1180;-87
2022/07/18 00:12:26;;;;;;;3.65;1.25;;;;;;;;;;521939;28;1217;-87
2022/07/18 00:12:41;;;;;;;3.10;1.20;;;;;;;;;;522726;28;888;-87
2022/07/18 00:12:57;;;;;;;2.58;1.20;;;;;;;;;;522190;28;1274;-87
2022/07/18 00:13:12;;;;;;;2.73;1.20;;;;;;;;;;523048;28;832;-87
2022/07/18 00:13:28;;;;;;;3.50;1.20;;;;;;;;;;522929;28;1315;-87
2022/07/18 00:13:43;;;;;;;3.28;1.10;;;;;;;;;;524542;28;855;-86
2022/07/18 00:13:59;;;;;;;2.20;1.03;;;;;;;;;;524040;28;1261;-87
2022/07/18 00:14:14;;;;;;;2.25;1.17;;;;;;;;;;523259;28;782;-87
2022/07/18 00:14:30;;;;;;;2.50;1.30;;;;;;;;;;526525;28;963;-87
2022/07/18 00:14:45;;;;;;;2.17;1.30;;;;;;;;;;524679;28;1269;-87
2022/07/18 00:15:03;;;;;;;3.05;1.13;;;;;;;;;;524216;28;1140;-87
2022/07/18 00:15:19;;;;;;;3.30;1.10;;;;;;;;;;524773;28;1900;-87
2022/07/18 00:15:34;;;;;;;2.58;1.25;;;;;;;;;;526312;28;1298;-87
2022/07/18 00:15:49;;;;;;;2.77;1.17;;;;;;;;;;526312;28;1183;-86
2022/07/18 00:16:05;;;;;;;3.07;1.10;;;;;;;;;;526427;28;935;-87
2022/07/18 00:16:20;;;;;;;3.10;1.20;;;;;;;;;;526391;28;832;-87
2022/07/18 00:16:36;;;;;;;3.37;1.20;;;;;;;;;;524284;28;1211;-87
2022/07/18 00:16:51;;;;;;;2.90;1.15;;;;;;;;;;526227;28;796;-87
2022/07/18 00:17:07;;;;;;;2.00;1.13;;;;;;;;;;524227;28;1187;-87
2022/07/18 00:17:23;;;;;;;3.33;1.13;;;;;;;;;;524284;28;1226;-87
2022/07/18 00:17:38;;;;;;;3.78;1.25;;;;;;;;;;526163;28;986;-87
2022/07/18 00:17:54;;;;;;;2.57;1.20;;;;;;;;;;527469;28;872;-87
2022/07/18 00:18:09;;;;;;;2.60;1.13;;;;;;;;;;526530;28;816;-87
2022/07/18 00:18:24;;;;;;;3.03;1.20;;;;;;;;;;528215;27;843;-87
2022/07/18 00:18:40;;;;;;;3.10;1.30;;;;;;;;;;528655;28;1159;-87
2022/07/18 00:18:58;;;;;;;2.70;1.20;;;;;;;;;;528657;28;1143;-86
2022/07/18 00:19:14;;;;;;;2.95;1.20;;;;;;;;;;529269;28;934;-87
2022/07/18 00:19:29;;;;;;;3.00;1.20;;;;;;;;;;530891;27;899;-87
2022/07/18 00:19:45;;;;;;;2.63;1.10;;;;;;;;;;530808;27;1319;-87
2022/07/18 00:20:00;;;;;;;2.97;1.30;;;;;;;;;;529948;27;981;-87
2022/07/18 00:20:16;;;;;;;3.50;1.30;;;;;;;;;;528593;28;844;-87
2022/07/18 00:20:32;;;;;;;3.65;1.30;;;;;;;;;;528628;28;903;-87
2022/07/18 00:20:47;;;;;;;3.00;1.20;;;;;;;;;;526665;28;1412;-87
2022/07/18 00:21:02;;;;;;;2.30;1.00;;;;;;;;;;528466;28;1183;-87
2022/07/18 00:21:18;;;;;;;2.80;1.13;;;;;;;;;;528595;28;892;-87
2022/07/18 00:21:34;;;;;;;2.65;1.20;;;;;;;;;;528155;28;1113;-86
2022/07/18 00:21:49;;;;;;;2.75;1.10;;;;;;;;;;524188;28;1092;-87
2022/07/18 00:22:05;;;;;;;3.47;1.20;;;;;;;;;;522092;28;1184;-87
2022/07/18 00:22:21;;;;;;;2.67;1.20;;;;;;;;;;522193;28;1030;-87
2022/07/18 00:22:36;;;;;;;1.73;1.10;;;;;;;;;;523770;28;1510;-87
2022/07/18 00:22:52;;;;;;;2.77;1.10;;;;;;;;;;524819;28;1568;-86
2022/07/18 00:23:07;;;;;;;3.58;1.17;;;;;;;;;;526286;28;1157;-87
2022/07/18 00:23:23;;;;;;;2.73;1.10;;;;;;;;;;521016;28;1198;-87
2022/07/18 00:23:38;;;;;;;2.15;1.02;;;;;;;;;;518272;28;1362;-87
2022/07/18 00:23:53;;;;;;;1.97;1.00;;;;;;;;;;520200;28;1141;-87
2022/07/18 00:24:09;;;;;;;1.60;1.00;;;;;;;;;;523321;28;1335;-87
2022/07/18 00:24:24;;;;;;;2.13;1.02;;;;;;;;;;524163;28;1225;-87
2022/07/18 00:24:40;;;;;;;3.00;1.10;;;;;;;;;;526032;28;1318;-87
2022/07/18 00:24:55;;;;;;;3.63;1.27;;;;;;;;;;527547;28;1362;-87
2022/07/18 00:25:11;;;;;;;3.70;1.27;;;;;;;;;;526217;28;934;-87
2022/07/18 00:25:26;;;;;;;2.87;1.20;;;;;;;;;;524051;28;1325;-86
2022/07/18 00:25:41;;;;;;;3.33;1.20;;;;;;;;;;524539;28;1203;-87
2022/07/18 00:25:57;;;;;;;3.23;1.10;;;;;;;;;;522114;28;1160;-87
2022/07/18 00:26:12;;;;;;;2.30;1.13;;;;;;;;;;522213;28;1097;-88
2022/07/18 00:26:27;;;;;;;2.30;1.10;;;;;;;;;;522129;28;884;-86
2022/07/18 00:26:43;;;;;;;2.50;1.10;;;;;;;;;;522152;28;1329;-87
2022/07/18 00:26:59;;;;;;;1.95;1.08;;;;;;;;;;524228;28;831;-87
2022/07/18 00:27:15;;;;;;;2.25;1.10;;;;;;;;;;524323;28;1255;-87
2022/07/18 00:27:30;;;;;;;2.90;1.13;;;;;;;;;;524456;28;1181;-87
2022/07/18 00:27:46;;;;;;;2.90;1.30;;;;;;;;;;523966;28;1299;-87
2022/07/18 00:28:01;;;;;;;2.67;1.20;;;;;;;;;;523988;28;792;-87
2022/07/18 00:28:16;;;;;;;2.67;1.00;;;;;;;;;;520621;28;1179;-86
2022/07/18 00:28:32;;;;;;;2.40;1.00;;;;;;;;;;518379;28;1180;-87
2022/07/18 00:28:47;;;;;;;2.50;1.10;;;;;;;;;;518105;28;1188;-87
2022/07/18 00:29:03;;;;;;;3.20;1.13;;;;;;;;;;518028;28;1169;-87
2022/07/18 00:29:18;;;;;;;2.63;1.10;;;;;;;;;;518425;28;1078;-87
2022/07/18 00:29:38;;;;;;;2.20;1.20;;;;;;;;;;522668;28;1272;-87
2022/07/18 00:29:54;;;;;;;2.75;1.25;;;;;;;;;;522609;28;899;-87
2022/07/18 00:30:10;;;;;;;2.85;1.30;;;;;;;;;;523322;28;1046;-87
2022/07/18 00:30:25;;;;;;;2.45;1.23;;;;;;;;;;524530;28;1026;-87
2022/07/18 00:30:41;;;;;;;2.67;1.23;;;;;;;;;;522144;28;1325;-87
2022/07/18 00:30:56;;;;;;;2.58;1.30;;;;;;;;;;521432;28;1322;-87
2022/07/18 00:31:12;;;;;;;3.57;1.30;;;;;;;;;;522195;28;1262;-87
2022/07/18 00:31:27;;;;;;;3.85;1.23;;;;;;;;;;521123;28;1426;-87
2022/07/18 00:31:43;;;;;;;3.43;1.10;;;;;;;;;;520521;28;1255;-86
2022/07/18 00:31:58;;;;;;;4.30;1.20;;;;;;;;;;520229;28;1306;-87
2022/07/18 00:32:13;;;;;;;4.53;1.20;;;;;;;;;;522289;28;1258;-87
2022/07/18 00:32:29;;;;;;;3.23;1.20;;;;;;;;;;522428;28;1290;-87
2022/07/18 00:32:44;;;;;;;2.25;1.20;;;;;;;;;;522342;28;1287;-88
2022/07/18 00:33:00;;;;;;;2.50;1.17;;;;;;;;;;522512;28;820;-87
2022/07/18 00:33:15;;;;;;;3.07;1.23;;;;;;;;;;522353;28;847;-88
2022/07/18 00:33:30;;;;;;;3.38;1.30;;;;;;;;;;520495;28;1178;-87
2022/07/18 00:33:46;;;;;;;3.13;1.23;;;;;;;;;;522556;28;871;-87
2022/07/18 00:34:01;;;;;;;2.70;1.10;;;;;;;;;;524660;28;912;-87
2022/07/18 00:34:17;;;;;;;4.43;1.00;;;;;;;;;;526476;28;1166;-87
2022/07/18 00:34:33;;;;;;;3.67;1.00;;;;;;;;;;526653;28;998;-87
2022/07/18 00:34:49;;;;;;;3.17;1.00;;;;;;;;;;528467;27;1089;-87
2022/07/18 00:35:05;;;;;;;3.07;1.00;;;;;;;;;;526263;28;1249;-87
2022/07/18 00:35:20;;;;;;;2.83;1.00;;;;;;;;;;524636;28;1905;-87
2022/07/18 00:35:36;;;;;;;2.05;1.05;;;;;;;;;;527678;28;800;-87
2022/07/18 00:35:51;;;;;;;2.50;1.10;;;;;;;;;;528167;28;1147;-87
2022/07/18 00:36:06;;;;;;;2.58;1.10;;;;;;;;;;528193;28;1274;-87
2022/07/18 00:36:22;;;;;;;2.30;1.00;;;;;;;;;;528280;28;1223;-87
2022/07/18 00:36:37;;;;;;;2.17;1.10;;;;;;;;;;528497;28;1371;-87
2022/07/18 00:36:53;;;;;;;2.83;1.30;;;;;;;;;;528485;28;799;-86
2022/07/18 00:37:08;;;;;;;3.50;1.30;;;;;;;;;;526643;28;1159;-87
2022/07/18 00:37:24;;;;;;;4.18;1.20;;;;;;;;;;528106;28;1483;-87
2022/07/18 00:37:39;;;;;;;3.70;1.10;;;;;;;;;;526606;28;1566;-87
2022/07/18 00:37:55;;;;;;;3.15;1.17;;;;;;;;;;525881;28;1743;-87
2022/07/18 00:38:10;;;;;;;3.00;1.20;;;;;;;;;;524014;28;1234;-86
2022/07/18 00:38:25;;;;;;;4.30;1.30;;;;;;;;;;524503;28;919;-87
2022/07/18 00:38:41;;;;;;;3.67;1.20;;;;;;;;;;524309;28;1349;-87
2022/07/18 00:38:58;;;;;;;1.83;1.10;;;;;;;;;;524591;28;832;-87
2022/07/18 00:39:14;;;;;;;2.58;1.20;;;;;;;;;;524100;28;1223;-87
2022/07/18 00:39:30;;;;;;;3.63;1.30;;;;;;;;;;522257;28;1257;-87
2022/07/18 00:39:45;;;;;;;3.37;1.23;;;;;;;;;;522715;28;1427;-87
2022/07/18 00:40:01;;;;;;;2.67;1.15;;;;;;;;;;522991;28;1275;-88
2022/07/18 00:40:16;;;;;;;2.75;1.00;;;;;;;;;;524328;28;1286;-87
2022/07/18 00:40:32;;;;;;;2.20;1.03;;;;;;;;;;523992;28;1154;-87
2022/07/18 00:40:48;;;;;;;2.45;1.10;;;;;;;;;;524142;28;1382;-87
2022/07/18 00:41:03;;;;;;;2.83;1.20;;;;;;;;;;524269;28;942;-87
2022/07/18 00:41:19;;;;;;;2.50;1.23;;;;;;;;;;521953;28;1460;-87
2022/07/18 00:41:35;;;;;;;2.00;1.20;;;;;;;;;;522551;28;809;-87
2022/07/18 00:41:50;;;;;;;1.55;1.00;;;;;;;;;;522082;28;1329;-86
2022/07/18 00:42:06;;;;;;;2.17;1.00;;;;;;;;;;520396;28;1347;-87
2022/07/18 00:42:21;;;;;;;2.80;1.10;;;;;;;;;;522526;28;1243;-87
2022/07/18 00:42:37;;;;;;;3.03;1.30;;;;;;;;;;524909;28;858;-86
2022/07/18 00:42:52;;;;;;;3.03;1.40;;;;;;;;;;524256;28;1130;-87
2022/07/18 00:43:08;;;;;;;3.10;1.30;;;;;;;;;;524767;28;859;-87
2022/07/18 00:43:23;;;;;;;3.70;1.20;;;;;;;;;;526372;28;1009;-86
2022/07/18 00:43:38;;;;;;;3.97;1.10;;;;;;;;;;526432;28;927;-87
2022/07/18 00:43:54;;;;;;;3.25;1.10;;;;;;;;;;524378;28;1334;-87
2022/07/18 00:44:17;;;;;;;2.27;1.13;;;;;;;;;;524712;28;706;-88
2022/07/18 00:44:32;;;;;;;2.25;1.10;;;;;;;;;;524367;28;1481;-87
2022/07/18 00:44:53;;;;;;;1.63;1.10;;;;;;;;;;525706;28;1356;-87
2022/07/18 00:45:09;;;;;;;2.05;1.20;;;;;;;;;;526608;28;820;-87
2022/07/18 00:45:25;;;;;;;2.73;1.30;;;;;;;;;;524434;28;1146;-87
2022/07/18 00:45:48;;;;;;;3.58;1.27;;;;;;;;;;524348;28;1201;-87
2022/07/18 00:46:04;;;;;;;2.67;1.20;;;;;;;;;;524277;28;1352;-87
2022/07/18 00:46:25;;;;;;;2.47;1.08;;;;;;;;;;526272;28;840;-87
2022/07/18 00:46:40;;;;;;;3.75;1.20;;;;;;;;;;529426;27;1054;-87
2022/07/18 00:46:59;;;;;;;3.53;1.20;;;;;;;;;;527711;28;1464;-87
2022/07/18 00:47:15;;;;;;;2.40;1.10;;;;;;;;;;526495;28;1014;-87
2022/07/18 00:47:30;;;;;;;2.07;1.10;;;;;;;;;;526401;28;955;-87
2022/07/18 00:47:46;;;;;;;2.50;1.20;;;;;;;;;;524386;28;1284;-87
2022/07/18 00:48:07;;;;;;;3.17;1.10;;;;;;;;;;523828;28;1248;-87
2022/07/18 00:48:23;;;;;;;3.70;1.17;;;;;;;;;;524354;28;1026;-86
2022/07/18 00:48:39;;;;;;;2.27;1.10;;;;;;;;;;524336;28;1151;-88
2022/07/18 00:48:55;;;;;;;2.53;1.10;;;;;;;;;;524185;28;1388;-88
2022/07/18 00:49:10;;;;;;;3.63;1.20;;;;;;;;;;524494;28;892;-87
2022/07/18 00:49:27;;;;;;;3.03;1.10;;;;;;;;;;524505;28;935;-87
2022/07/18 00:49:42;;;;;;;2.55;1.20;;;;;;;;;;524457;28;1336;-87
2022/07/18 00:49:57;;;;;;;3.03;1.20;;;;;;;;;;525891;28;1265;-87
2022/07/18 00:50:13;;;;;;;2.88;1.17;;;;;;;;;;524428;28;1280;-87
2022/07/18 00:50:29;;;;;;;2.87;1.10;;;;;;;;;;522954;28;1268;-87
2022/07/18 00:50:45;;;;;;;2.53;1.20;;;;;;;;;;524833;28;1400;-87
2022/07/18 00:51:00;;;;;;;1.90;1.10;;;;;;;;;;524341;28;1169;-87
2022/07/18 00:51:17;;;;;;;2.95;1.15;;;;;;;;;;520238;28;1293;-87
2022/07/18 00:51:36;;;;;;;2.78;1.20;;;;;;;;;;520779;28;1002;-87
2022/07/18 00:51:52;;;;;;;3.97;1.20;;;;;;;;;;523518;28;906;-87
2022/07/18 00:52:08;;;;;;;4.68;1.00;;;;;;;;;;523416;28;1310;-87
2022/07/18 00:52:23;;;;;;;5.53;1.00;;;;;;;;;;525579;28;1041;-87
2022/07/18 00:52:39;;;;;;;4.63;1.10;;;;;;;;;;524035;28;1264;-88
2022/07/18 00:52:54;;;;;;;3.63;1.20;;;;;;;;;;525188;28;911;-87
2022/07/18 00:53:10;;;;;;;3.50;1.30;;;;;;;;;;527405;28;844;-87
2022/07/18 00:53:26;;;;;;;3.22;1.13;;;;;;;;;;526489;28;1434;-87
2022/07/18 00:53:41;;;;;;;3.50;1.20;;;;;;;;;;526400;28;1291;-88
2022/07/18 00:53:56;;;;;;;3.13;1.17;;;;;;;;;;526580;28;1147;-87
2022/07/18 00:54:12;;;;;;;3.42;1.08;;;;;;;;;;526632;28;816;-88
2022/07/18 00:54:28;;;;;;;3.63;1.10;;;;;;;;;;526271;28;970;-87
2022/07/18 00:54:43;;;;;;;3.22;1.10;;;;;;;;;;526442;28;1268;-87
2022/07/18 00:54:59;;;;;;;3.00;1.20;;;;;;;;;;525237;28;1248;-87
2022/07/18 00:55:15;;;;;;;3.30;1.20;;;;;;;;;;525367;28;1005;-87
2022/07/18 00:55:32;;;;;;;2.70;1.10;;;;;;;;;;524369;28;1232;-87
2022/07/18 00:55:47;;;;;;;2.53;1.20;;;;;;;;;;525056;28;1081;-87
2022/07/18 00:56:04;;;;;;;2.83;1.20;;;;;;;;;;525146;28;1276;-87
2022/07/18 00:56:20;;;;;;;2.30;1.10;;;;;;;;;;524290;28;1222;-87
2022/07/18 00:56:35;;;;;;;1.98;1.10;;;;;;;;;;524280;28;1187;-87
2022/07/18 00:56:51;;;;;;;1.87;1.07;;;;;;;;;;525170;28;1133;-87
2022/07/18 00:57:07;;;;;;;3.58;1.17;;;;;;;;;;526440;28;1186;-87
2022/07/18 00:57:22;;;;;;;3.75;1.30;;;;;;;;;;526503;28;909;-88
2022/07/18 00:57:40;;;;;;;2.85;1.20;;;;;;;;;;526046;28;899;-87
2022/07/18 00:57:57;;;;;;;3.42;1.00;;;;;;;;;;523030;28;1609;-87
2022/07/18 00:58:13;;;;;;;3.28;1.05;;;;;;;;;;522943;28;1329;-87
2022/07/18 00:58:29;;;;;;;2.30;1.10;;;;;;;;;;524922;28;899;-87
2022/07/18 00:58:45;;;;;;;2.10;1.00;;;;;;;;;;526290;28;1300;-87
2022/07/18 00:59:01;;;;;;;3.75;1.10;;;;;;;;;;527271;28;1396;-87
2022/07/18 00:59:16;;;;;;;3.65;1.27;;;;;;;;;;525781;28;1258;-87
2022/07/18 01:01:53;;;;;;;4.13;1.30;;;;;;;;;;528719;28;752;-86
2022/07/18 01:02:09;;;;;;;3.93;1.30;;;;;;;;;;528322;28;1525;-87
2022/07/18 01:02:26;;;;;;;2.67;1.13;;;;;;;;;;528489;28;931;-87
2022/07/18 01:02:41;;;;;;;2.50;1.10;;;;;;;;;;528075;28;1325;-87
2022/07/18 01:02:57;;;;;;;2.67;1.10;;;;;;;;;;528470;28;910;-87
2022/07/18 01:03:13;;;;;;;2.05;1.08;;;;;;;;;;528344;28;1283;-87
2022/07/18 01:03:28;;;;;;;2.10;1.05;;;;;;;;;;529779;27;971;-87
2022/07/18 01:03:44;;;;;;;2.17;1.00;;;;;;;;;;530662;27;1211;-87
2022/07/18 01:03:59;;;;;;;1.85;0.95;;;;;;;;;;530743;27;1257;-87
2022/07/18 01:04:21;;;;;;;2.03;1.00;;;;;;;;;;529288;27;1248;-86
2022/07/18 01:04:37;;;;;;;2.28;1.00;;;;;;;;;;528230;28;1253;-87
2022/07/18 01:04:53;;;;;;;2.50;1.00;;;;;;;;;;526135;28;1357;-87
2022/07/18 01:05:09;;;;;;;3.28;1.00;;;;;;;;;;525635;28;1313;-87
2022/07/18 01:05:24;;;;;;;3.25;1.08;;;;;;;;;;526240;28;1314;-87
2022/07/18 01:05:39;;;;;;;2.70;1.20;;;;;;;;;;526353;28;939;-87
2022/07/18 01:05:55;;;;;;;2.60;1.10;;;;;;;;;;526376;28;982;-87
2022/07/18 01:06:10;;;;;;;2.10;1.00;;;;;;;;;;524060;28;1271;-88
2022/07/18 01:06:26;;;;;;;2.70;1.20;;;;;;;;;;524570;28;1415;-87
2022/07/18 01:06:42;;;;;;;3.33;1.20;;;;;;;;;;525965;28;1452;-87
2022/07/18 01:06:57;;;;;;;3.43;1.13;;;;;;;;;;526232;28;1209;-87
2022/07/18 01:07:13;;;;;;;3.70;1.10;;;;;;;;;;526067;28;879;-87
2022/07/18 01:07:28;;;;;;;2.80;1.00;;;;;;;;;;524575;28;888;-88
2022/07/18 01:07:44;;;;;;;2.90;1.10;;;;;;;;;;524389;28;824;-87
2022/07/18 01:07:59;;;;;;;3.27;1.13;;;;;;;;;;522709;28;1385;-87
2022/07/18 01:08:14;;;;;;;3.65;1.17;;;;;;;;;;524818;28;1194;-87
2022/07/18 01:08:30;;;;;;;3.30;1.17;;;;;;;;;;528579;28;880;-87
2022/07/18 01:08:46;;;;;;;2.70;1.02;;;;;;;;;;528399;28;883;-86
2022/07/18 01:09:02;;;;;;;2.05;1.00;;;;;;;;;;528484;28;1366;-87
2022/07/18 01:09:19;;;;;;;1.70;1.08;;;;;;;;;;528214;28;1166;-87
2022/07/18 01:09:34;;;;;;;2.20;1.02;;;;;;;;;;526287;28;1477;-87
2022/07/18 01:09:49;;;;;;;2.70;1.10;;;;;;;;;;524955;28;1303;-87
2022/07/18 01:10:05;;;;;;;2.90;1.10;;;;;;;;;;524607;28;961;-87
2022/07/18 01:10:21;;;;;;;2.60;1.17;;;;;;;;;;524030;28;1152;-87
2022/07/18 01:10:36;;;;;;;3.57;1.30;;;;;;;;;;524092;28;1410;-87
2022/07/18 01:10:53;;;;;;;3.78;1.30;;;;;;;;;;523419;28;1398;-88
2022/07/18 01:11:09;;;;;;;4.13;1.20;;;;;;;;;;522210;28;1584;-87
2022/07/18 01:11:25;;;;;;;2.90;1.08;;;;;;;;;;523076;28;908;-88
2022/07/18 01:11:42;;;;;;;1.60;1.00;;;;;;;;;;525834;28;991;-87
2022/07/18 01:11:58;;;;;;;2.55;1.10;;;;;;;;;;524327;28;1348;-87
2022/07/18 01:12:14;;;;;;;3.33;1.20;;;;;;;;;;522271;28;1187;-87
2022/07/18 01:12:29;;;;;;;3.55;1.20;;;;;;;;;;521365;28;1330;-87
2022/07/18 01:12:45;;;;;;;3.08;1.02;;;;;;;;;;523176;28;1272;-87
2022/07/18 01:13:01;;;;;;;2.45;1.00;;;;;;;;;;524949;28;1002;-87
2022/07/18 01:13:17;;;;;;;2.28;1.10;;;;;;;;;;524763;28;1324;-86
2022/07/18 01:13:33;;;;;;;2.00;1.10;;;;;;;;;;524157;28;1093;-88
2022/07/18 01:13:49;;;;;;;1.80;1.10;;;;;;;;;;524315;28;805;-87
2022/07/18 01:14:05;;;;;;;2.08;1.10;;;;;;;;;;526003;28;1401;-87
2022/07/18 01:14:21;;;;;;;2.20;1.00;;;;;;;;;;526244;28;1377;-87
2022/07/18 01:14:36;;;;;;;2.47;1.10;;;;;;;;;;525504;28;1366;-88
2022/07/18 01:14:52;;;;;;;2.70;1.10;;;;;;;;;;522227;28;1317;-87
2022/07/18 01:15:08;;;;;;;2.30;1.05;;;;;;;;;;522760;28;1512;-87
2022/07/18 01:15:23;;;;;;;3.93;1.20;;;;;;;;;;522082;28;1925;-86
2022/07/18 01:15:39;;;;;;;3.92;1.23;;;;;;;;;;520330;28;1262;-87
2022/07/18 01:15:54;;;;;;;1.87;1.10;;;;;;;;;;520383;28;1209;-87
2022/07/18 01:16:09;;;;;;;1.83;1.10;;;;;;;;;;520013;28;1195;-87
2022/07/18 01:16:25;;;;;;;2.10;1.10;;;;;;;;;;520179;28;789;-86
2022/07/18 01:16:40;;;;;;;2.23;1.10;;;;;;;;;;519856;28;1352;-87
2022/07/18 01:16:56;;;;;;;1.77;1.05;;;;;;;;;;520059;28;1168;-87
2022/07/18 01:17:16;;;;;;;1.75;1.20;;;;;;;;;;520619;28;947;-87
2022/07/18 01:17:32;;;;;;;2.38;1.10;;;;;;;;;;523259;28;851;-87
2022/07/18 01:17:49;;;;;;;2.53;1.10;;;;;;;;;;522297;28;1305;-87
2022/07/18 01:18:04;;;;;;;2.53;1.27;;;;;;;;;;521301;28;1267;-87
2022/07/18 01:18:20;;;;;;;2.50;1.10;;;;;;;;;;522293;28;789;-87
2022/07/18 01:18:36;;;;;;;2.30;1.00;;;;;;;;;;523349;28;848;-87
2022/07/18 01:18:51;;;;;;;2.40;1.10;;;;;;;;;;523215;28;1288;-87
2022/07/18 01:19:07;;;;;;;3.35;1.17;;;;;;;;;;524075;28;832;-87
2022/07/18 01:19:22;;;;;;;3.40;1.10;;;;;;;;;;524060;28;1165;-87
2022/07/18 01:19:37;;;;;;;1.95;1.00;;;;;;;;;;524695;28;1155;-87
2022/07/18 01:19:53;;;;;;;2.10;1.07;;;;;;;;;;526544;28;919;-87
2022/07/18 01:20:09;;;;;;;2.50;1.10;;;;;;;;;;526263;28;1259;-87
2022/07/18 01:20:28;;;;;;;2.13;1.00;;;;;;;;;;526430;28;1074;-87
2022/07/18 01:20:44;;;;;;;2.00;1.00;;;;;;;;;;525197;28;1471;-87
2022/07/18 01:20:59;;;;;;;2.17;1.07;;;;;;;;;;526487;28;935;-87
2022/07/18 01:21:16;;;;;;;2.53;1.17;;;;;;;;;;523415;28;1330;-87
2022/07/18 01:21:32;;;;;;;2.03;1.10;;;;;;;;;;521677;28;1268;-87
2022/07/18 01:21:47;;;;;;;2.03;1.13;;;;;;;;;;522176;28;1312;-88
2022/07/18 01:22:02;;;;;;;3.15;1.20;;;;;;;;;;523267;28;1210;-87
2022/07/18 01:22:19;;;;;;;3.93;1.17;;;;;;;;;;525442;28;824;-87
2022/07/18 01:22:34;;;;;;;4.07;1.20;;;;;;;;;;526187;28;831;-86
2022/07/18 01:22:50;;;;;;;4.80;1.25;;;;;;;;;;526314;28;749;-87
2022/07/18 01:23:05;;;;;;;4.33;1.23;;;;;;;;;;525718;28;1248;-87
2022/07/18 01:23:24;;;;;;;2.67;1.20;;;;;;;;;;524271;28;1199;-87
2022/07/18 01:23:39;;;;;;;2.50;1.08;;;;;;;;;;524340;28;800;-87
2022/07/18 01:23:55;;;;;;;3.10;1.13;;;;;;;;;;525326;28;1348;-87
2022/07/18 01:24:10;;;;;;;3.83;1.30;;;;;;;;;;524017;28;1249;-87
2022/07/18 01:24:26;;;;;;;2.90;1.15;;;;;;;;;;524238;28;797;-87
2022/07/18 01:24:41;;;;;;;2.17;1.00;;;;;;;;;;523997;28;1354;-88
2022/07/18 01:24:57;;;;;;;2.10;1.20;;;;;;;;;;524190;28;1279;-87
2022/07/18 01:25:12;;;;;;;3.08;1.40;;;;;;;;;;522024;28;1280;-87
2022/07/18 01:25:28;;;;;;;4.38;1.23;;;;;;;;;;520361;28;1228;-87
2022/07/18 01:25:43;;;;;;;4.40;1.20;;;;;;;;;;522025;28;876;-86
2022/07/18 01:25:59;;;;;;;3.35;1.27;;;;;;;;;;522582;28;805;-87
2022/07/18 01:26:16;;;;;;;3.00;1.10;;;;;;;;;;524070;28;1170;-87
2022/07/18 01:26:32;;;;;;;2.47;0.95;;;;;;;;;;521906;28;1348;-86
2022/07/18 01:26:47;;;;;;;1.60;0.90;;;;;;;;;;521233;28;1165;-87
2022/07/18 01:27:03;;;;;;;3.22;1.10;;;;;;;;;;518321;28;1218;-87
2022/07/18 01:27:21;;;;;;;3.33;1.10;;;;;;;;;;520460;28;823;-87
2022/07/18 01:27:36;;;;;;;2.35;1.10;;;;;;;;;;522007;28;1563;-87
2022/07/18 01:27:53;;;;;;;2.88;1.20;;;;;;;;;;521982;28;1166;-87
2022/07/18 01:28:08;;;;;;;2.80;1.15;;;;;;;;;;523122;28;1232;-87
2022/07/18 01:28:25;;;;;;;2.83;1.15;;;;;;;;;;522896;28;1310;-86
2022/07/18 01:28:40;;;;;;;3.28;1.10;;;;;;;;;;525222;28;1016;-87
2022/07/18 01:28:56;;;;;;;3.17;1.20;;;;;;;;;;524293;28;1300;-87
2022/07/18 01:29:11;;;;;;;3.37;1.20;;;;;;;;;;524046;28;1231;-87
2022/07/18 01:29:27;;;;;;;2.90;1.13;;;;;;;;;;524574;28;923;-86
2022/07/18 01:29:44;;;;;;;2.70;1.30;;;;;;;;;;523638;28;1281;-87
2022/07/18 01:29:59;;;;;;;2.55;1.13;;;;;;;;;;522249;28;928;-87
2022/07/18 01:30:15;;;;;;;3.13;1.20;;;;;;;;;;522867;28;1325;-87
2022/07/18 01:30:30;;;;;;;4.47;1.30;;;;;;;;;;522085;28;1279;-87
2022/07/18 01:30:46;;;;;;;4.10;1.15;;;;;;;;;;522142;28;1419;-87
2022/07/18 01:31:04;;;;;;;4.40;1.20;;;;;;;;;;522268;28;919;-87
2022/07/18 01:31:20;;;;;;;4.28;1.30;;;;;;;;;;522277;28;840;-91
2022/07/18 01:31:35;;;;;;;3.83;1.30;;;;;;;;;;523217;28;1322;-90
2022/07/18 01:31:50;;;;;;;3.20;1.30;;;;;;;;;;523996;28;1291;-91
2022/07/18 01:32:08;;;;;;;3.42;1.20;;;;;;;;;;524236;28;1248;-90
2022/07/18 01:32:24;;;;;;;2.50;1.10;;;;;;;;;;524238;28;1452;-90
2022/07/18 01:32:39;;;;;;;2.40;1.00;;;;;;;;;;524393;28;1365;-90
2022/07/18 01:33:00;;;;;;;3.30;1.20;;;;;;;;;;524177;28;1594;-91
2022/07/18 01:33:16;;;;;;;2.03;1.20;;;;;;;;;;520167;28;1468;-91
2022/07/18 01:33:33;;;;;;;1.90;1.20;;;;;;;;;;520216;28;1028;-90
2022/07/18 01:33:48;;;;;;;2.80;1.20;;;;;;;;;;524190;28;1404;-90
2022/07/18 01:34:03;;;;;;;2.83;1.20;;;;;;;;;;526267;28;1240;-90
2022/07/18 01:34:23;;;;;;;2.33;1.13;;;;;;;;;;526331;28;1294;-92
2022/07/18 01:34:39;;;;;;;1.63;1.10;;;;;;;;;;523815;28;1266;-91
2022/07/18 01:34:55;;;;;;;2.65;1.13;;;;;;;;;;524350;28;903;-90
2022/07/18 01:35:11;;;;;;;3.80;1.20;;;;;;;;;;523467;28;1278;-90
2022/07/18 01:35:27;;;;;;;3.40;1.30;;;;;;;;;;522169;28;1906;-90
2022/07/18 01:35:42;;;;;;;3.33;1.17;;;;;;;;;;522272;28;1035;-90
2022/07/18 01:36:00;;;;;;;2.47;1.02;;;;;;;;;;522235;28;1362;-90
2022/07/18 01:36:15;;;;;;;2.03;0.90;;;;;;;;;;523428;28;824;-90
2022/07/18 01:36:33;;;;;;;1.95;1.00;;;;;;;;;;522181;28;1350;-91
2022/07/18 01:36:48;;;;;;;1.92;1.08;;;;;;;;;;522292;28;939;-90
2022/07/18 01:37:05;;;;;;;2.40;1.10;;;;;;;;;;521112;28;1172;-91
2022/07/18 01:37:20;;;;;;;2.40;1.10;;;;;;;;;;523371;28;1341;-89
2022/07/18 01:37:36;;;;;;;2.37;1.10;;;;;;;;;;522228;28;1221;-90
2022/07/18 01:37:53;;;;;;;2.20;1.00;;;;;;;;;;522316;28;781;-90
2022/07/18 01:38:12;;;;;;;2.30;1.02;;;;;;;;;;522331;28;824;-90
2022/07/18 01:38:28;;;;;;;2.47;1.10;;;;;;;;;;521517;28;1287;-89
2022/07/18 01:38:44;;;;;;;2.78;1.38;;;;;;;;;;519909;28;1352;-89
2022/07/18 01:38:59;;;;;;;2.63;1.30;;;;;;;;;;520074;28;737;-89
2022/07/18 01:39:15;;;;;;;2.38;1.20;;;;;;;;;;519384;28;1243;-88
2022/07/18 01:39:30;;;;;;;2.57;1.20;;;;;;;;;;523321;28;1156;-89
2022/07/18 01:39:46;;;;;;;2.23;1.10;;;;;;;;;;524040;28;1140;-88
2022/07/18 01:40:07;;;;;;;1.67;0.93;;;;;;;;;;524074;28;1312;-89
2022/07/18 01:40:23;;;;;;;1.85;0.98;;;;;;;;;;521341;28;1216;-88
2022/07/18 01:40:39;;;;;;;3.63;1.20;;;;;;;;;;521107;28;1327;-89
2022/07/18 01:40:55;;;;;;;3.40;1.23;;;;;;;;;;520199;28;1283;-88
2022/07/18 01:41:11;;;;;;;2.40;1.10;;;;;;;;;;518139;28;1309;-89